PAL1806 RPMD-RPLL
Flight info
| Callsign | PAL1806 |
|---|---|
| Flight time | N/A |
| Altitude | 36000 |
| Route | ANKIN3R ANKIN B473 LAIYA LAIYA3R |
| Aircraft | B77W/H-SDE1E2E3FGHIJ2J3J4J5M1RWXY/LB1D1 |
Departure
| Time | N/A |
|---|---|
| Airport | Francisco Bangoy International Airport (RPMD) |
Arrival
| Time | 2026-04-30 11:27 |
|---|---|
| Airport | Ninoy Aquino International Airport (RPLL) |
| Time | Latitude | Longitude | Altitude | Speed | Heading |
|---|---|---|---|---|---|
| 2026-04-30 11:04 | 13.14342 | 121.69475 | 25455 ft | 449 kts | 325° |
| 2026-04-30 11:04 | 13.16903 | 121.67683 | 24859 ft | 446 kts | 326° |
| 2026-04-30 11:05 | 13.19452 | 121.65901 | 24287 ft | 442 kts | 326° |
| 2026-04-30 11:05 | 13.22003 | 121.64117 | 23688 ft | 439 kts | 326° |
| 2026-04-30 11:05 | 13.24513 | 121.62360 | 23116 ft | 435 kts | 326° |
| 2026-04-30 11:05 | 13.27008 | 121.60613 | 22554 ft | 432 kts | 326° |
| 2026-04-30 11:06 | 13.29462 | 121.58895 | 22027 ft | 427 kts | 326° |
| 2026-04-30 11:06 | 13.31912 | 121.57180 | 21515 ft | 423 kts | 326° |
| 2026-04-30 11:06 | 13.34354 | 121.55469 | 20962 ft | 420 kts | 327° |
| 2026-04-30 11:06 | 13.36731 | 121.53805 | 20415 ft | 417 kts | 327° |
| 2026-04-30 11:07 | 13.39144 | 121.52114 | 19855 ft | 414 kts | 327° |
| 2026-04-30 11:07 | 13.41496 | 121.50465 | 19217 ft | 409 kts | 327° |
| 2026-04-30 11:07 | 13.43826 | 121.48833 | 18550 ft | 406 kts | 327° |
| 2026-04-30 11:07 | 13.46175 | 121.47185 | 17882 ft | 403 kts | 327° |
| 2026-04-30 11:08 | 13.48475 | 121.45572 | 17253 ft | 398 kts | 327° |
| 2026-04-30 11:08 | 13.50719 | 121.43996 | 16961 ft | 384 kts | 327° |
| 2026-04-30 11:08 | 13.52864 | 121.42490 | 16816 ft | 367 kts | 327° |
| 2026-04-30 11:08 | 13.54924 | 121.41045 | 16718 ft | 349 kts | 327° |
| 2026-04-30 11:09 | 13.56906 | 121.39654 | 16560 ft | 335 kts | 327° |
| 2026-04-30 11:09 | 13.58795 | 121.38292 | 16183 ft | 331 kts | 326° |
| 2026-04-30 11:09 | 13.60639 | 121.36907 | 15676 ft | 331 kts | 326° |
| 2026-04-30 11:09 | 13.62512 | 121.35502 | 15210 ft | 331 kts | 326° |
| 2026-04-30 11:10 | 13.64368 | 121.34114 | 14822 ft | 329 kts | 326° |
| 2026-04-30 11:10 | 13.66218 | 121.32734 | 14503 ft | 325 kts | 326° |
| 2026-04-30 11:10 | 13.68043 | 121.31373 | 14220 ft | 324 kts | 326° |
| 2026-04-30 11:10 | 13.69868 | 121.30013 | 13935 ft | 324 kts | 326° |
| 2026-04-30 11:11 | 13.71703 | 121.28647 | 13643 ft | 322 kts | 326° |
| 2026-04-30 11:11 | 13.73506 | 121.27303 | 13356 ft | 321 kts | 326° |
| 2026-04-30 11:11 | 13.75324 | 121.25947 | 13070 ft | 319 kts | 326° |
| 2026-04-30 11:11 | 13.77116 | 121.24609 | 12794 ft | 317 kts | 326° |
| 2026-04-30 11:12 | 13.78914 | 121.23268 | 12519 ft | 315 kts | 326° |
| 2026-04-30 11:12 | 13.80674 | 121.21956 | 12308 ft | 315 kts | 326° |
| 2026-04-30 11:12 | 13.82453 | 121.20628 | 12050 ft | 314 kts | 326° |
| 2026-04-30 11:12 | 13.84231 | 121.19300 | 11776 ft | 312 kts | 326° |
| 2026-04-30 11:13 | 13.85980 | 121.17994 | 11497 ft | 310 kts | 326° |
| 2026-04-30 11:13 | 13.87721 | 121.16694 | 11220 ft | 309 kts | 326° |
| 2026-04-30 11:13 | 13.89467 | 121.15391 | 10948 ft | 308 kts | 326° |
| 2026-04-30 11:13 | 13.91207 | 121.14092 | 10596 ft | 307 kts | 326° |
| 2026-04-30 11:14 | 13.92948 | 121.12791 | 10250 ft | 305 kts | 326° |
| 2026-04-30 11:14 | 13.94641 | 121.11525 | 9947 ft | 301 kts | 326° |
| 2026-04-30 11:14 | 13.96346 | 121.10250 | 9629 ft | 298 kts | 326° |
| 2026-04-30 11:14 | 13.98026 | 121.08996 | 9316 ft | 296 kts | 326° |
| 2026-04-30 11:15 | 13.99669 | 121.07767 | 9031 ft | 293 kts | 326° |
| 2026-04-30 11:15 | 14.01318 | 121.06536 | 8804 ft | 291 kts | 326° |
| 2026-04-30 11:15 | 14.02955 | 121.05312 | 8561 ft | 288 kts | 325° |
| 2026-04-30 11:15 | 14.04574 | 121.04100 | 8297 ft | 286 kts | 324° |
| 2026-04-30 11:16 | 14.06168 | 121.02908 | 8023 ft | 282 kts | 324° |
| 2026-04-30 11:16 | 14.07755 | 121.01720 | 7699 ft | 278 kts | 324° |
| 2026-04-30 11:16 | 14.09314 | 121.00553 | 7421 ft | 272 kts | 324° |
| 2026-04-30 11:16 | 14.10819 | 120.99427 | 7168 ft | 266 kts | 324° |
| 2026-04-30 11:17 | 14.12212 | 120.98384 | 6937 ft | 260 kts | 324° |
| 2026-04-30 11:17 | 14.13664 | 120.97296 | 6617 ft | 255 kts | 324° |
| 2026-04-30 11:17 | 14.15105 | 120.96217 | 6358 ft | 257 kts | 324° |
| 2026-04-30 11:17 | 14.16565 | 120.95124 | 6102 ft | 259 kts | 324° |
| 2026-04-30 11:18 | 14.18092 | 120.94104 | 5872 ft | 260 kts | 330° |
| 2026-04-30 11:18 | 14.21241 | 120.92249 | 5645 ft | 259 kts | 330° |
| 2026-04-30 11:18 | 14.22813 | 120.91322 | 5503 ft | 258 kts | 330° |
| 2026-04-30 11:19 | 14.24343 | 120.90417 | 5358 ft | 253 kts | 330° |
| 2026-04-30 11:19 | 14.25861 | 120.89519 | 5215 ft | 246 kts | 330° |
| 2026-04-30 11:19 | 14.27327 | 120.88653 | 5071 ft | 239 kts | 330° |
| 2026-04-30 11:19 | 14.28778 | 120.87805 | 4934 ft | 233 kts | 331° |
| 2026-04-30 11:20 | 14.30187 | 120.86983 | 4803 ft | 233 kts | 332° |
| 2026-04-30 11:20 | 14.31615 | 120.86166 | 4664 ft | 232 kts | 332° |
| 2026-04-30 11:20 | 14.33020 | 120.85355 | 4527 ft | 226 kts | 331° |
| 2026-04-30 11:20 | 14.34360 | 120.84579 | 4404 ft | 217 kts | 331° |
| 2026-04-30 11:21 | 14.35615 | 120.83848 | 4294 ft | 208 kts | 332° |
| 2026-04-30 11:21 | 14.36863 | 120.83127 | 4192 ft | 199 kts | 332° |
| 2026-04-30 11:21 | 14.38087 | 120.82501 | 3947 ft | 197 kts | 348° |
| 2026-04-30 11:21 | 14.39415 | 120.82566 | 3695 ft | 190 kts | 23° |
| 2026-04-30 11:22 | 14.40420 | 120.83398 | 3469 ft | 183 kts | 52° |
| 2026-04-30 11:22 | 14.41101 | 120.84490 | 3256 ft | 178 kts | 60° |
| 2026-04-30 11:22 | 14.41717 | 120.85604 | 3048 ft | 176 kts | 60° |
| 2026-04-30 11:22 | 14.42315 | 120.86682 | 2842 ft | 172 kts | 60° |
| 2026-04-30 11:23 | 14.42914 | 120.87753 | 2639 ft | 169 kts | 60° |
| 2026-04-30 11:23 | 14.43493 | 120.88789 | 2443 ft | 163 kts | 60° |
| 2026-04-30 11:23 | 14.44596 | 120.90759 | 2068 ft | 150 kts | 60° |
| 2026-04-30 11:24 | 14.45098 | 120.91658 | 1894 ft | 143 kts | 60° |
| 2026-04-30 11:24 | 14.45594 | 120.92542 | 1713 ft | 141 kts | 60° |
| 2026-04-30 11:24 | 14.46090 | 120.93429 | 1530 ft | 141 kts | 60° |
| 2026-04-30 11:25 | 14.47064 | 120.95171 | 1164 ft | 142 kts | 60° |
| 2026-04-30 11:25 | 14.47553 | 120.96044 | 981 ft | 140 kts | 61° |
| 2026-04-30 11:25 | 14.48539 | 120.97807 | 608 ft | 140 kts | 62° |
| 2026-04-30 11:26 | 14.49525 | 120.99545 | 233 ft | 141 kts | 62° |
| 2026-04-30 11:26 | 14.50012 | 121.00420 | 89 ft | 138 kts | 63° |
| 2026-04-30 11:26 | 14.50442 | 121.01196 | 88 ft | 103 kts | 60° |
| 2026-04-30 11:27 | 14.50726 | 121.01710 | 88 ft | 68 kts | 60° |
| 2026-04-30 11:27 | 14.50906 | 121.02032 | 88 ft | 33 kts | 61° |
| 2026-04-30 11:27 | 14.50969 | 121.02141 | 88 ft | 21 kts | 50° |